Aviation Digital Data Service (ADDS)

Output produced by METARs form (1700 UTC 27 April 2015)
found at http://www.aviationweather.gov/adds/metars/
 
KCRQ 271653Z 00000KT 10SM CLR 21/10 A2995 RMK AO2 SLP138 T02110100
KCRQ 271553Z 18003KT 10SM CLR 18/11 A2995 RMK AO2 SLP139 T01830106
KCRQ 271453Z 00000KT 10SM CLR 16/11 A2994 RMK AO2 SLP136 T01560106 51016
KCRQ 271353Z 08003KT 10SM CLR 13/10 A2993 RMK AO2 SLP132 T01330100
KCRQ 271124Z 2712/2812 VRB04KT P6SM SCT200 
     FM271900 27010KT P6SM SCT250 
     FM280200 VRB04KT P6SM SKC